Dades meteomassalio
Diari Summary for Gener 13, 2018 Units:  Both    English   Metric
« Previous Day
Next Day »
Diari Semanal Mensual Anual Personalitzat
  Maxima: Minima: Mijana:
Temperatura: 46.9 °F /  8.3 °C 28 °F /  -2.2 °C 37.8 °F /  3.2 °C
Rosada: 41.2 °F /  5.1 °C 25.7 °F /  -3.5 °C 34.3 °F /  1.3 °C
Humitat: 92 % 74 % 87 %
Velocitat del vent: 6.9 mph /  11.1 km/h - 0.6 mph /  0.9 km/h
Racha vent: 6.9 mph /  11.1 km/h - -
Vent:- - South
Pressio: 30.3 in /  1026.3 hPa 30.1 in /  1018.5 hPa -
Pluja: 0.05 in /  1.3 mm    
Historical Graphs
 
 
Tabular Data for Gener 13, 2018
Time Temperature Dew Point Pressure Wind Wind Speed Wind Gust Humidity Rainfall Rate (Hourly) solar Conditions
00:00 36 °F /  2.2 °C 32.2 °F /  0.1 °C 30.3 in /  1026.3 hPa Calm     86 % 0 in /  0.0 mm 0.0 W/m2 CLR
00:12 35.1 °F /  1.7 °C 31.5 °F /  -0.3 °C 30.3 in /  1026.3 hPa Calm     87 % 0 in /  0.0 mm 0.0 W/m2 CLR
00:21 34 °F /  1.1 °C 30.6 °F /  -0.8 °C 30.3 in /  1026.3 hPa Calm     87 % 0 in /  0.0 mm 0.0 W/m2 CLR
00:29 34 °F /  1.1 °C 30.6 °F /  -0.8 °C 30.3 in /  1026.3 hPa Calm     87 % 0 in /  0.0 mm 0.0 W/m2 CLR
00:36 35.1 °F /  1.7 °C 31.5 °F /  -0.3 °C 30.3 in /  1026.3 hPa Calm     87 % 0 in /  0.0 mm 0.0 W/m2 CLR
00:46 34 °F /  1.1 °C 30.6 °F /  -0.8 °C 30.3 in /  1026.3 hPa Calm     87 % 0 in /  0.0 mm 0.0 W/m2 CLR
00:54 34 °F /  1.1 °C 30.7 °F /  -0.7 °C 30.3 in /  1026.0 hPa Calm     88 % 0 in /  0.0 mm 0.0 W/m2 CLR
01:11 34 °F /  1.1 °C 30.7 °F /  -0.7 °C 30.3 in /  1026.0 hPa Calm     88 % 0 in /  0.0 mm 0.0 W/m2 CLR
01:18 33.1 °F /  0.6 °C 29.8 °F /  -1.2 °C 30.3 in /  1026.0 hPa Calm     88 % 0 in /  0.0 mm 0.0 W/m2 CLR
01:26 33.1 °F /  0.6 °C 29.8 °F /  -1.2 °C 30.3 in /  1026.0 hPa Calm     88 % 0 in /  0.0 mm 0.0 W/m2 CLR
01:42 32 °F /  0.0 °C 29.1 °F /  -1.6 °C 30.3 in /  1025.6 hPa Calm     89 % 0 in /  0.0 mm 0.0 W/m2 CLR
01:54 32 °F /  0.0 °C 29.1 °F /  -1.6 °C 30.3 in /  1025.6 hPa Calm     89 % 0 in /  0.0 mm 0.0 W/m2 CLR
02:03 32 °F /  0.0 °C 29.5 °F /  -1.4 °C 30.3 in /  1025.3 hPa Calm     90 % 0 in /  0.0 mm 0.0 W/m2 CLR
02:12 32 °F /  0.0 °C 29.5 °F /  -1.4 °C 30.3 in /  1025.3 hPa Calm     90 % 0 in /  0.0 mm 0.0 W/m2 CLR
02:21 32 °F /  0.0 °C 29.5 °F /  -1.4 °C 30.3 in /  1024.9 hPa Calm     90 % 0 in /  0.0 mm 0.0 W/m2 CLR
02:26 32 °F /  0.0 °C 29.5 °F /  -1.4 °C 30.3 in /  1024.9 hPa Calm     90 % 0 in /  0.0 mm 0.0 W/m2 CLR
02:34 30.9 °F /  -0.6 °C 28.4 °F /  -2.0 °C 30.3 in /  1024.9 hPa Calm     90 % 0 in /  0.0 mm 0.0 W/m2 CLR
02:45 30.9 °F /  -0.6 °C 28.4 °F /  -2.0 °C 30.3 in /  1024.9 hPa Calm     90 % 0 in /  0.0 mm 0.0 W/m2 CLR
03:00 30.9 °F /  -0.6 °C 28.4 °F /  -2.0 °C 30.3 in /  1024.9 hPa Calm     90 % 0 in /  0.0 mm 0.0 W/m2 CLR
03:06 30 °F /  -1.1 °C 27.3 °F /  -2.6 °C 30.3 in /  1024.9 hPa Calm     90 % 0 in /  0.0 mm 0.0 W/m2 CLR
03:22 30.9 °F /  -0.6 °C 28.8 °F /  -1.8 °C 30.3 in /  1024.9 hPa Calm     91 % 0 in /  0.0 mm 0.0 W/m2 CLR
03:28 30.9 °F /  -0.6 °C 28.8 °F /  -1.8 °C 30.3 in /  1024.9 hPa Calm     91 % 0 in /  0.0 mm 0.0 W/m2 CLR
03:48 30.9 °F /  -0.6 °C 28.8 °F /  -1.8 °C 30.3 in /  1024.9 hPa Calm     91 % 0 in /  0.0 mm 0.0 W/m2 CLR
04:04 30.9 °F /  -0.6 °C 28.8 °F /  -1.8 °C 30.3 in /  1024.9 hPa Calm     91 % 0 in /  0.0 mm 0.0 W/m2 CLR
04:16 30 °F /  -1.1 °C 27.7 °F /  -2.4 °C 30.3 in /  1024.6 hPa Calm     91 % 0 in /  0.0 mm 0.0 W/m2 CLR
04:22 30 °F /  -1.1 °C 27.7 °F /  -2.4 °C 30.3 in /  1024.6 hPa Calm     91 % 0 in /  0.0 mm 0.0 W/m2 CLR
04:52 30 °F /  -1.1 °C 27.7 °F /  -2.4 °C 30.3 in /  1024.3 hPa Calm     91 % 0 in /  0.0 mm 0.0 W/m2 CLR
04:58 30 °F /  -1.1 °C 27.7 °F /  -2.4 °C 30.3 in /  1024.3 hPa Calm     91 % 0 in /  0.0 mm 0.0 W/m2 CLR
05:07 30 °F /  -1.1 °C 27.7 °F /  -2.4 °C 30.3 in /  1024.3 hPa Calm     91 % 0 in /  0.0 mm 0.0 W/m2 CLR
05:16 30 °F /  -1.1 °C 27.7 °F /  -2.4 °C 30.3 in /  1024.3 hPa Calm     91 % 0 in /  0.0 mm 0.0 W/m2 CLR
05:34 28.9 °F /  -1.7 °C 26.8 °F /  -2.9 °C 30.2 in /  1023.9 hPa Calm     91 % 0 in /  0.0 mm 0.0 W/m2 CLR
05:39 28.9 °F /  -1.7 °C 26.8 °F /  -2.9 °C 30.2 in /  1023.9 hPa Calm     91 % 0 in /  0.0 mm 0.0 W/m2 CLR
05:52 28 °F /  -2.2 °C 25.7 °F /  -3.5 °C 30.2 in /  1023.6 hPa Calm     91 % 0 in /  0.0 mm 0.0 W/m2 CLR
06:05 28 °F /  -2.2 °C 26.1 °F /  -3.3 °C 30.2 in /  1023.2 hPa Calm     92 % 0 in /  0.0 mm 0.0 W/m2 CLR
06:17 28 °F /  -2.2 °C 26.1 °F /  -3.3 °C 30.2 in /  1023.6 hPa Calm     92 % 0 in /  0.0 mm 0.0 W/m2 CLR
06:34 28 °F /  -2.2 °C 26.1 °F /  -3.3 °C 30.2 in /  1023.6 hPa Calm     92 % 0 in /  0.0 mm 0.0 W/m2 CLR
06:44 28 °F /  -2.2 °C 26.1 °F /  -3.3 °C 30.2 in /  1023.6 hPa Calm     92 % 0 in /  0.0 mm 0.0 W/m2 CLR
06:55 28 °F /  -2.2 °C 26.1 °F /  -3.3 °C 30.2 in /  1023.2 hPa Calm     92 % 0 in /  0.0 mm 0.0 W/m2 CLR
07:14 28 °F /  -2.2 °C 26.1 °F /  -3.3 °C 30.2 in /  1023.2 hPa Calm     92 % 0 in /  0.0 mm 0.0 W/m2 CLR
07:36 28.9 °F /  -1.7 °C 27 °F /  -2.8 °C 30.2 in /  1022.9 hPa Calm     92 % 0 in /  0.0 mm 0.0 W/m2 CLR
07:56 28.9 °F /  -1.7 °C 27 °F /  -2.8 °C 30.2 in /  1022.9 hPa Calm     92 % 0 in /  0.0 mm 0.0 W/m2 CLR
08:04 28.9 °F /  -1.7 °C 27 °F /  -2.8 °C 30.2 in /  1022.9 hPa Calm     92 % 0 in /  0.0 mm 0.0 W/m2 CLR
08:16 28.9 °F /  -1.7 °C 27 °F /  -2.8 °C 30.2 in /  1022.9 hPa Calm     92 % 0 in /  0.0 mm 7.0 W/m2 OVC
09:03 28.9 °F /  -1.7 °C 27 °F /  -2.8 °C 30.2 in /  1023.2 hPa Calm     92 % 0 in /  0.0 mm 56.0 W/m2 SCT
09:09 30 °F /  -1.1 °C 28 °F /  -2.2 °C 30.2 in /  1023.2 hPa Calm     92 % 0 in /  0.0 mm 74.0 W/m2 FEW
09:25 30 °F /  -1.1 °C 28 °F /  -2.2 °C 30.2 in /  1023.2 hPa Calm     92 % 0 in /  0.0 mm 49.0 W/m2 FEW
09:37 30.9 °F /  -0.6 °C 28.9 °F /  -1.7 °C 30.2 in /  1023.2 hPa Calm     92 % 0 in /  0.0 mm 83.0 W/m2 FEW
10:09 32 °F /  0.0 °C 29.7 °F /  -1.3 °C 30.2 in /  1023.2 hPa Calm     91 % 0.01 in /  0.3 mm 123.0 W/m2 CLR
10:14 32 °F /  0.0 °C 29.7 °F /  -1.3 °C 30.2 in /  1023.2 hPa Calm     91 % 0.01 in /  0.3 mm 218.0 W/m2 CLR
10:20 33.1 °F /  0.6 °C 30.7 °F /  -0.7 °C 30.2 in /  1023.2 hPa Calm     91 % 0.01 in /  0.3 mm 218.0 W/m2 CLR
10:27 34 °F /  1.1 °C 31.5 °F /  -0.3 °C 30.2 in /  1023.2 hPa Calm     90 % 0.01 in /  0.3 mm 195.0 W/m2 CLR
10:39 35.1 °F /  1.7 °C 32.2 °F /  0.1 °C 30.2 in /  1023.2 hPa Calm     89 % 0.01 in /  0.3 mm 330.0 W/m2 CLR
10:50 36 °F /  2.2 °C 32.5 °F /  0.3 °C 30.2 in /  1023.2 hPa Calm     87 % 0.01 in /  0.3 mm 183.0 W/m2 CLR
11:07 39 °F /  3.9 °C 34.9 °F /  1.6 °C 30.2 in /  1023.6 hPa Calm     85 % 0 in /  0.0 mm 193.0 W/m2 CLR
11:15 39.9 °F /  4.4 °C 35.6 °F /  2.0 °C 30.2 in /  1023.2 hPa Calm     84 % 0 in /  0.0 mm 179.0 W/m2 CLR
11:25 39.9 °F /  4.4 °C 35.2 °F /  1.8 °C 30.2 in /  1023.2 hPa Calm     83 % 0 in /  0.0 mm 274.0 W/m2 CLR
12:10 45 °F /  7.2 °C 38.1 °F /  3.4 °C 30.2 in /  1022.6 hPa Calm     77 % 0 in /  0.0 mm 439.0 W/m2 CLR
12:26 46.9 °F /  8.3 °C 39 °F /  3.9 °C 30.2 in /  1022.2 hPa East 5 mph /  8.0 km/h 5 mph /  8.0 km/h 74 % 0 in /  0.0 mm 392.0 W/m2 CLR
12:31 46.9 °F /  8.3 °C 39.6 °F /  4.2 °C 30.2 in /  1022.2 hPa East 3.5 mph /  5.6 km/h 3.5 mph /  5.6 km/h 75 % 0 in /  0.0 mm 496.0 W/m2 CLR
12:42 46.9 °F /  8.3 °C 39.6 °F /  4.2 °C 30.2 in /  1021.9 hPa NE 3.5 mph /  5.6 km/h 3.5 mph /  5.6 km/h 75 % 0 in /  0.0 mm 355.0 W/m2 CLR
12:56 46.9 °F /  8.3 °C 39.7 °F /  4.3 °C 30.2 in /  1021.6 hPa ENE 3.5 mph /  5.6 km/h 3.5 mph /  5.6 km/h 76 % 0 in /  0.0 mm 339.0 W/m2 CLR
13:03 46.9 °F /  8.3 °C 40.3 °F /  4.6 °C 30.2 in /  1021.6 hPa ENE 5.8 mph /  9.3 km/h 5.8 mph /  9.3 km/h 77 % 0 in /  0.0 mm 248.0 W/m2 CLR
13:08 46.9 °F /  8.3 °C 40.3 °F /  4.6 °C 30.2 in /  1021.6 hPa ENE 5.8 mph /  9.3 km/h 5.8 mph /  9.3 km/h 77 % 0 in /  0.0 mm 230.0 W/m2 CLR
13:27 46 °F /  7.8 °C 39.9 °F /  4.4 °C 30.2 in /  1020.9 hPa ENE 3.5 mph /  5.6 km/h 3.5 mph /  5.6 km/h 79 % 0 in /  0.0 mm 134.0 W/m2 CLR
13:34 46 °F /  7.8 °C 39.9 °F /  4.4 °C 30.2 in /  1021.2 hPa ENE 2.3 mph /  3.7 km/h 2.3 mph /  3.7 km/h 79 % 0 in /  0.0 mm 132.0 W/m2 CLR
13:39 46 °F /  7.8 °C 39.9 °F /  4.4 °C 30.2 in /  1020.9 hPa ENE 3.5 mph /  5.6 km/h 3.5 mph /  5.6 km/h 79 % 0 in /  0.0 mm 128.0 W/m2 CLR
13:51 46 °F /  7.8 °C 40.3 °F /  4.6 °C 30.2 in /  1020.9 hPa Calm     80 % 0 in /  0.0 mm 113.0 W/m2 CLR
14:00 46 °F /  7.8 °C 40.3 °F /  4.6 °C 30.1 in /  1020.5 hPa Calm     80 % 0 in /  0.0 mm 125.0 W/m2 CLR
14:08 46 °F /  7.8 °C 40.5 °F /  4.7 °C 30.1 in /  1020.5 hPa Calm     81 % 0 in /  0.0 mm 188.0 W/m2 CLR
14:18 46 °F /  7.8 °C 40.5 °F /  4.7 °C 30.1 in /  1020.2 hPa East 1.2 mph /  1.9 km/h 1.2 mph /  1.9 km/h 81 % 0 in /  0.0 mm 146.0 W/m2 CLR
14:29 45 °F /  7.2 °C 39.6 °F /  4.2 °C 30.1 in /  1019.9 hPa ENE 3.5 mph /  5.6 km/h 3.5 mph /  5.6 km/h 81 % 0 in /  0.0 mm 109.0 W/m2 CLR
14:54 46 °F /  7.8 °C 40.8 °F /  4.9 °C 30.1 in /  1019.9 hPa Calm     82 % 0 in /  0.0 mm 116.0 W/m2 CLR
15:02 46 °F /  7.8 °C 40.8 °F /  4.9 °C 30.1 in /  1019.9 hPa Calm     82 % 0 in /  0.0 mm 111.0 W/m2 CLR
15:10 46 °F /  7.8 °C 41.2 °F /  5.1 °C 30.1 in /  1019.9 hPa Calm     83 % 0 in /  0.0 mm 95.0 W/m2 CLR
15:18 46 °F /  7.8 °C 41.2 °F /  5.1 °C 30.1 in /  1019.9 hPa Calm     83 % 0 in /  0.0 mm 109.0 W/m2 CLR
15:29 46 °F /  7.8 °C 40.8 °F /  4.9 °C 30.1 in /  1019.5 hPa North 2.3 mph /  3.7 km/h 2.3 mph /  3.7 km/h 82 % 0 in /  0.0 mm 95.0 W/m2 CLR
15:35 46 °F /  7.8 °C 41.2 °F /  5.1 °C 30.1 in /  1019.2 hPa Calm     83 % 0 in /  0.0 mm 102.0 W/m2 CLR
15:49 46 °F /  7.8 °C 41.2 °F /  5.1 °C 30.1 in /  1019.2 hPa Calm     83 % 0 in /  0.0 mm 102.0 W/m2 CLR
15:54 46 °F /  7.8 °C 41.2 °F /  5.1 °C 30.1 in /  1019.2 hPa Calm     83 % 0 in /  0.0 mm 107.0 W/m2 CLR
16:19 46 °F /  7.8 °C 41.2 °F /  5.1 °C 30.1 in /  1019.2 hPa Calm     83 % 0 in /  0.0 mm 195.0 W/m2 CLR
16:25 46 °F /  7.8 °C 41.2 °F /  5.1 °C 30.1 in /  1018.8 hPa Calm     83 % 0 in /  0.0 mm 322.0 W/m2 CLR
16:33 46 °F /  7.8 °C 40.8 °F /  4.9 °C 30.1 in /  1019.2 hPa Calm     82 % 0 in /  0.0 mm 102.0 W/m2 CLR
16:39 46 °F /  7.8 °C 40.8 °F /  4.9 °C 30.1 in /  1019.2 hPa Calm     82 % 0 in /  0.0 mm 51.0 W/m2 FEW
16:47 45 °F /  7.2 °C 40.1 °F /  4.5 °C 30.1 in /  1018.8 hPa Calm     83 % 0 in /  0.0 mm 46.0 W/m2 SCT
16:56 45 °F /  7.2 °C 40.1 °F /  4.5 °C 30.1 in /  1018.5 hPa Calm     83 % 0 in /  0.0 mm 67.0 W/m2 FEW
17:03 45 °F /  7.2 °C 40.1 °F /  4.5 °C 30.1 in /  1018.5 hPa Calm     83 % 0 in /  0.0 mm 35.0 W/m2 BKN
17:10 44.1 °F /  6.7 °C 39.2 °F /  4.0 °C 30.1 in /  1018.5 hPa Calm     83 % 0 in /  0.0 mm 28.0 W/m2 BKN
17:17 44.1 °F /  6.7 °C 39.2 °F /  4.0 °C 30.1 in /  1018.5 hPa Calm     83 % 0 in /  0.0 mm 33.0 W/m2 BKN
17:22 43 °F /  6.1 °C 38.1 °F /  3.4 °C 30.1 in /  1018.5 hPa Calm     83 % 0 in /  0.0 mm 26.0 W/m2 BKN
17:40 41 °F /  5.0 °C 36.5 °F /  2.5 °C 30.1 in /  1018.5 hPa Calm     84 % 0 in /  0.0 mm 9.0 W/m2 BKN
17:46 39.9 °F /  4.4 °C 36 °F /  2.2 °C 30.1 in /  1018.5 hPa Calm     85 % 0 in /  0.0 mm 5.0 W/m2 OVC
17:55 39 °F /  3.9 °C 34.9 °F /  1.6 °C 30.1 in /  1018.8 hPa NNW 3.5 mph /  5.6 km/h 3.5 mph /  5.6 km/h 85 % 0 in /  0.0 mm 0.0 W/m2 OVC
18:11 39.9 °F /  4.4 °C 36.3 °F /  2.4 °C 30.1 in /  1018.8 hPa NNW 6.9 mph /  11.1 km/h 6.9 mph /  11.1 km/h 87 % 0 in /  0.0 mm 0.0 W/m2 CLR
18:32 39 °F /  3.9 °C 35.8 °F /  2.1 °C 30.1 in /  1018.8 hPa Calm     88 % 0 in /  0.0 mm 0.0 W/m2 CLR
18:38 39 °F /  3.9 °C 35.8 °F /  2.1 °C 30.1 in /  1019.2 hPa Calm     88 % 0 in /  0.0 mm 0.0 W/m2 CLR
18:44 39 °F /  3.9 °C 35.8 °F /  2.1 °C 30.1 in /  1019.5 hPa Calm     88 % 0 in /  0.0 mm 0.0 W/m2 CLR
19:02 39 °F /  3.9 °C 36 °F /  2.2 °C 30.1 in /  1019.5 hPa Calm     89 % 0 in /  0.0 mm 0.0 W/m2 CLR
19:08 39.9 °F /  4.4 °C 37 °F /  2.8 °C 30.1 in /  1019.5 hPa Calm     89 % 0 in /  0.0 mm 0.0 W/m2 CLR
19:14 39.9 °F /  4.4 °C 37 °F /  2.8 °C 30.1 in /  1019.5 hPa Calm     89 % 0 in /  0.0 mm 0.0 W/m2 CLR
19:21 39.9 °F /  4.4 °C 37 °F /  2.8 °C 30.1 in /  1019.5 hPa Calm     89 % 0 in /  0.0 mm 0.0 W/m2 CLR
19:30 39.9 °F /  4.4 °C 37 °F /  2.8 °C 30.1 in /  1019.2 hPa Calm     89 % 0 in /  0.0 mm 0.0 W/m2 CLR
19:38 39.9 °F /  4.4 °C 37 °F /  2.8 °C 30.1 in /  1019.2 hPa Calm     89 % 0 in /  0.0 mm 0.0 W/m2 CLR
20:19 39 °F /  3.9 °C 36 °F /  2.2 °C 30.1 in /  1019.2 hPa West 1.2 mph /  1.9 km/h 1.2 mph /  1.9 km/h 89 % 0 in /  0.0 mm 0.0 W/m2 CLR
20:24 39.9 °F /  4.4 °C 37 °F /  2.8 °C 30.1 in /  1019.2 hPa Calm     89 % 0 in /  0.0 mm 0.0 W/m2 CLR
20:30 39.9 °F /  4.4 °C 37 °F /  2.8 °C 30.1 in /  1019.2 hPa Calm     89 % 0 in /  0.0 mm 0.0 W/m2 CLR
20:46 41 °F /  5.0 °C 37.9 °F /  3.3 °C 30.1 in /  1019.2 hPa Calm     89 % 0 in /  0.0 mm 0.0 W/m2 CLR
21:04 39.9 °F /  4.4 °C 37 °F /  2.8 °C 30.1 in /  1019.2 hPa Calm     89 % 0 in /  0.0 mm 0.0 W/m2 CLR
21:13 39.9 °F /  4.4 °C 37 °F /  2.8 °C 30.1 in /  1019.2 hPa Calm     89 % 0 in /  0.0 mm 0.0 W/m2 CLR
21:19 39.9 °F /  4.4 °C 37 °F /  2.8 °C 30.1 in /  1019.2 hPa Calm     89 % 0 in /  0.0 mm 0.0 W/m2 CLR
21:35 41 °F /  5.0 °C 37.8 °F /  3.2 °C 30.1 in /  1019.9 hPa NW 2.3 mph /  3.7 km/h 2.3 mph /  3.7 km/h 88 % 0 in /  0.0 mm 0.0 W/m2 CLR
21:42 41 °F /  5.0 °C 37.8 °F /  3.2 °C 30.1 in /  1019.9 hPa NW 3.5 mph /  5.6 km/h 3.5 mph /  5.6 km/h 88 % 0 in /  0.0 mm 0.0 W/m2 CLR
22:00 41 °F /  5.0 °C 37.8 °F /  3.2 °C 30.1 in /  1019.9 hPa Calm     88 % 0.01 in /  0.3 mm 0.0 W/m2 RA
22:06 41 °F /  5.0 °C 37.9 °F /  3.3 °C 30.1 in /  1019.9 hPa WNW 1.2 mph /  1.9 km/h 1.2 mph /  1.9 km/h 89 % 0.02 in /  0.5 mm 0.0 W/m2 RA
22:13 41 °F /  5.0 °C 37.9 °F /  3.3 °C 30.1 in /  1020.2 hPa Calm     89 % 0.02 in /  0.5 mm 0.0 W/m2 CLR
22:22 41 °F /  5.0 °C 38.3 °F /  3.5 °C 30.1 in /  1019.9 hPa Calm     90 % 0.02 in /  0.5 mm 0.0 W/m2 CLR
22:40 41 °F /  5.0 °C 38.3 °F /  3.5 °C 30.1 in /  1019.9 hPa Calm     90 % 0.03 in /  0.8 mm 0.0 W/m2 CLR
22:49 39.9 °F /  4.4 °C 37.6 °F /  3.1 °C 30.1 in /  1019.9 hPa Calm     91 % 0.03 in /  0.8 mm 0.0 W/m2 CLR
23:02 39.9 °F /  4.4 °C 37.6 °F /  3.1 °C 30.1 in /  1019.9 hPa Calm     91 % 0.02 in /  0.5 mm 0.0 W/m2 CLR
23:15 39.9 °F /  4.4 °C 37.6 °F /  3.1 °C 30.1 in /  1019.9 hPa Calm     91 % 0.01 in /  0.3 mm 0.0 W/m2 CLR
23:27 41 °F /  5.0 °C 38.8 °F /  3.8 °C 30.1 in /  1019.5 hPa West 3.5 mph /  5.6 km/h 3.5 mph /  5.6 km/h 92 % 0.01 in /  0.3 mm 0.0 W/m2 CLR
23:33 41 °F /  5.0 °C 38.8 °F /  3.8 °C 30.1 in /  1019.9 hPa West 3.5 mph /  5.6 km/h 3.5 mph /  5.6 km/h 92 % 0 in /  0.0 mm 0.0 W/m2 CLR
23:47 41 °F /  5.0 °C 38.7 °F /  3.7 °C 30.1 in /  1019.5 hPa Calm     91 % 0.01 in /  0.3 mm 0.0 W/m2 RA
23:54 41 °F /  5.0 °C 38.7 °F /  3.7 °C 30.1 in /  1019.5 hPa Calm     91 % 0.01 in /  0.3 mm 0.0 W/m2 CLR
23:59 41 °F /  5.0 °C 38.7 °F /  3.7 °C 30.1 in /  1019.5 hPa Calm     91 % 0.01 in /  0.3 mm 0.0 W/m2 CLR
Lo Temps de Massalio
Compliments of Weather Underground - 768 kb